sensor_id;sensor_type;location;lat;lon;timestamp;P1;durP1;ratioP1;P2;durP2;ratioP2
13693;SDS011;6919;52.344;14.518;2023-11-22T00:00:39;8.47;;;5.53;;
13693;SDS011;6919;52.344;14.518;2023-11-22T00:03:07;8.40;;;5.90;;
13693;SDS011;6919;52.344;14.518;2023-11-22T00:05:36;11.63;;;6.07;;
13693;SDS011;6919;52.344;14.518;2023-11-22T00:08:05;10.33;;;6.23;;
13693;SDS011;6919;52.344;14.518;2023-11-22T00:10:34;8.40;;;6.13;;
13693;SDS011;6919;52.344;14.518;2023-11-22T00:13:03;11.30;;;5.90;;
13693;SDS011;6919;52.344;14.518;2023-11-22T00:15:32;10.27;;;5.77;;
13693;SDS011;6919;52.344;14.518;2023-11-22T00:18:02;12.03;;;6.63;;
13693;SDS011;6919;52.344;14.518;2023-11-22T00:20:31;12.00;;;6.63;;
13693;SDS011;6919;52.344;14.518;2023-11-22T00:23:00;9.77;;;5.80;;
13693;SDS011;6919;52.344;14.518;2023-11-22T00:25:29;10.23;;;6.17;;
13693;SDS011;6919;52.344;14.518;2023-11-22T00:27:59;9.87;;;6.00;;
13693;SDS011;6919;52.344;14.518;2023-11-22T00:30:29;8.47;;;5.40;;
13693;SDS011;6919;52.344;14.518;2023-11-22T00:32:57;8.93;;;5.20;;
13693;SDS011;6919;52.344;14.518;2023-11-22T00:35:26;10.53;;;5.63;;
13693;SDS011;6919;52.344;14.518;2023-11-22T00:37:54;11.80;;;5.80;;
13693;SDS011;6919;52.344;14.518;2023-11-22T00:40:24;8.43;;;5.33;;
13693;SDS011;6919;52.344;14.518;2023-11-22T00:42:52;9.67;;;5.90;;
13693;SDS011;6919;52.344;14.518;2023-11-22T00:45:21;8.63;;;6.23;;
13693;SDS011;6919;52.344;14.518;2023-11-22T00:47:51;10.57;;;5.90;;
13693;SDS011;6919;52.344;14.518;2023-11-22T00:50:19;9.80;;;5.50;;
13693;SDS011;6919;52.344;14.518;2023-11-22T00:52:48;9.03;;;5.93;;
13693;SDS011;6919;52.344;14.518;2023-11-22T00:55:18;8.37;;;5.13;;
13693;SDS011;6919;52.344;14.518;2023-11-22T00:57:47;9.63;;;5.83;;
13693;SDS011;6919;52.344;14.518;2023-11-22T01:00:16;8.37;;;5.37;;
13693;SDS011;6919;52.344;14.518;2023-11-22T01:02:44;13.87;;;5.77;;
13693;SDS011;6919;52.344;14.518;2023-11-22T01:05:14;7.70;;;5.57;;
13693;SDS011;6919;52.344;14.518;2023-11-22T01:07:43;12.07;;;6.43;;
13693;SDS011;6919;52.344;14.518;2023-11-22T01:10:12;9.60;;;6.03;;
13693;SDS011;6919;52.344;14.518;2023-11-22T01:12:41;10.13;;;6.00;;
13693;SDS011;6919;52.344;14.518;2023-11-22T01:15:10;10.73;;;6.13;;
13693;SDS011;6919;52.344;14.518;2023-11-22T01:17:39;9.97;;;5.60;;
13693;SDS011;6919;52.344;14.518;2023-11-22T01:20:08;9.23;;;5.77;;
13693;SDS011;6919;52.344;14.518;2023-11-22T01:22:39;9.23;;;5.50;;
13693;SDS011;6919;52.344;14.518;2023-11-22T01:25:08;9.10;;;5.70;;
13693;SDS011;6919;52.344;14.518;2023-11-22T01:27:37;7.90;;;5.30;;
13693;SDS011;6919;52.344;14.518;2023-11-22T01:30:05;8.33;;;5.27;;
13693;SDS011;6919;52.344;14.518;2023-11-22T01:32:34;12.43;;;6.33;;
13693;SDS011;6919;52.344;14.518;2023-11-22T01:35:03;7.70;;;5.07;;
13693;SDS011;6919;52.344;14.518;2023-11-22T01:37:33;8.80;;;5.77;;
13693;SDS011;6919;52.344;14.518;2023-11-22T01:40:03;9.83;;;5.77;;
13693;SDS011;6919;52.344;14.518;2023-11-22T01:42:34;7.70;;;5.30;;
13693;SDS011;6919;52.344;14.518;2023-11-22T01:45:06;8.80;;;5.87;;
13693;SDS011;6919;52.344;14.518;2023-11-22T01:47:36;8.17;;;4.67;;
13693;SDS011;6919;52.344;14.518;2023-11-22T01:50:06;9.77;;;5.23;;
13693;SDS011;6919;52.344;14.518;2023-11-22T01:52:35;11.53;;;6.47;;
13693;SDS011;6919;52.344;14.518;2023-11-22T01:55:07;9.17;;;5.43;;
13693;SDS011;6919;52.344;14.518;2023-11-22T01:57:36;8.67;;;5.23;;
13693;SDS011;6919;52.344;14.518;2023-11-22T02:00:06;9.63;;;6.23;;
13693;SDS011;6919;52.344;14.518;2023-11-22T02:02:40;7.93;;;5.23;;
13693;SDS011;6919;52.344;14.518;2023-11-22T02:05:10;11.17;;;5.93;;
13693;SDS011;6919;52.344;14.518;2023-11-22T02:07:39;10.57;;;6.37;;
13693;SDS011;6919;52.344;14.518;2023-11-22T02:10:10;9.10;;;5.30;;
13693;SDS011;6919;52.344;14.518;2023-11-22T02:12:39;10.87;;;6.07;;
13693;SDS011;6919;52.344;14.518;2023-11-22T02:15:08;10.87;;;5.57;;
13693;SDS011;6919;52.344;14.518;2023-11-22T02:17:37;13.23;;;6.37;;
13693;SDS011;6919;52.344;14.518;2023-11-22T02:20:07;9.33;;;5.43;;
13693;SDS011;6919;52.344;14.518;2023-11-22T02:22:43;10.67;;;5.77;;
13693;SDS011;6919;52.344;14.518;2023-11-22T02:25:14;11.53;;;5.80;;
13693;SDS011;6919;52.344;14.518;2023-11-22T02:27:43;7.80;;;5.60;;
13693;SDS011;6919;52.344;14.518;2023-11-22T02:30:11;9.80;;;5.07;;
13693;SDS011;6919;52.344;14.518;2023-11-22T02:32:40;7.37;;;5.20;;
13693;SDS011;6919;52.344;14.518;2023-11-22T02:35:10;9.30;;;5.60;;
13693;SDS011;6919;52.344;14.518;2023-11-22T02:37:39;10.67;;;5.97;;
13693;SDS011;6919;52.344;14.518;2023-11-22T02:40:14;8.97;;;5.30;;
13693;SDS011;6919;52.344;14.518;2023-11-22T02:42:46;11.20;;;4.83;;
13693;SDS011;6919;52.344;14.518;2023-11-22T02:45:15;9.47;;;5.77;;
13693;SDS011;6919;52.344;14.518;2023-11-22T02:47:45;11.07;;;6.67;;
13693;SDS011;6919;52.344;14.518;2023-11-22T02:50:13;9.23;;;4.70;;
13693;SDS011;6919;52.344;14.518;2023-11-22T02:52:42;7.10;;;5.33;;
13693;SDS011;6919;52.344;14.518;2023-11-22T02:55:11;7.27;;;4.83;;
13693;SDS011;6919;52.344;14.518;2023-11-22T02:57:42;13.47;;;5.50;;
13693;SDS011;6919;52.344;14.518;2023-11-22T03:00:11;9.13;;;5.47;;
13693;SDS011;6919;52.344;14.518;2023-11-22T03:02:41;8.13;;;5.50;;
13693;SDS011;6919;52.344;14.518;2023-11-22T03:05:10;8.87;;;5.40;;
13693;SDS011;6919;52.344;14.518;2023-11-22T03:07:39;9.20;;;5.87;;
13693;SDS011;6919;52.344;14.518;2023-11-22T03:10:08;8.57;;;5.20;;
13693;SDS011;6919;52.344;14.518;2023-11-22T03:12:37;10.33;;;5.07;;
13693;SDS011;6919;52.344;14.518;2023-11-22T03:15:07;9.27;;;5.23;;
13693;SDS011;6919;52.344;14.518;2023-11-22T03:17:37;9.60;;;5.77;;
13693;SDS011;6919;52.344;14.518;2023-11-22T03:20:07;7.37;;;5.07;;
13693;SDS011;6919;52.344;14.518;2023-11-22T03:22:35;7.57;;;5.23;;
13693;SDS011;6919;52.344;14.518;2023-11-22T03:25:04;8.87;;;5.50;;
13693;SDS011;6919;52.344;14.518;2023-11-22T03:27:36;9.67;;;5.67;;
13693;SDS011;6919;52.344;14.518;2023-11-22T03:30:07;9.27;;;5.30;;
13693;SDS011;6919;52.344;14.518;2023-11-22T03:32:38;8.97;;;5.57;;
13693;SDS011;6919;52.344;14.518;2023-11-22T03:35:07;11.83;;;5.70;;
13693;SDS011;6919;52.344;14.518;2023-11-22T03:37:37;9.10;;;5.13;;
13693;SDS011;6919;52.344;14.518;2023-11-22T03:40:06;9.87;;;4.93;;
13693;SDS011;6919;52.344;14.518;2023-11-22T03:42:35;11.97;;;5.87;;
13693;SDS011;6919;52.344;14.518;2023-11-22T03:45:07;11.37;;;5.83;;
13693;SDS011;6919;52.344;14.518;2023-11-22T03:47:38;11.13;;;5.60;;
13693;SDS011;6919;52.344;14.518;2023-11-22T03:50:07;9.17;;;5.47;;
13693;SDS011;6919;52.344;14.518;2023-11-22T03:52:36;10.50;;;5.63;;
13693;SDS011;6919;52.344;14.518;2023-11-22T03:55:05;8.80;;;5.43;;
13693;SDS011;6919;52.344;14.518;2023-11-22T03:57:34;12.10;;;5.43;;
13693;SDS011;6919;52.344;14.518;2023-11-22T04:00:03;9.30;;;5.83;;
13693;SDS011;6919;52.344;14.518;2023-11-22T04:02:37;8.93;;;5.43;;
13693;SDS011;6919;52.344;14.518;2023-11-22T04:05:09;8.83;;;5.43;;
13693;SDS011;6919;52.344;14.518;2023-11-22T04:07:39;9.90;;;5.17;;
13693;SDS011;6919;52.344;14.518;2023-11-22T04:10:08;9.43;;;5.90;;
13693;SDS011;6919;52.344;14.518;2023-11-22T04:12:37;14.60;;;6.40;;
13693;SDS011;6919;52.344;14.518;2023-11-22T04:15:06;8.23;;;5.80;;
13693;SDS011;6919;52.344;14.518;2023-11-22T04:17:38;8.00;;;5.03;;
13693;SDS011;6919;52.344;14.518;2023-11-22T04:20:08;7.53;;;4.63;;
13693;SDS011;6919;52.344;14.518;2023-11-22T04:22:41;12.00;;;5.50;;
13693;SDS011;6919;52.344;14.518;2023-11-22T04:25:11;8.87;;;5.80;;
13693;SDS011;6919;52.344;14.518;2023-11-22T04:27:40;10.97;;;5.77;;
13693;SDS011;6919;52.344;14.518;2023-11-22T04:30:10;8.23;;;5.30;;
13693;SDS011;6919;52.344;14.518;2023-11-22T04:32:42;9.03;;;5.47;;
13693;SDS011;6919;52.344;14.518;2023-11-22T04:35:11;7.50;;;4.93;;
13693;SDS011;6919;52.344;14.518;2023-11-22T04:37:40;10.87;;;6.00;;
13693;SDS011;6919;52.344;14.518;2023-11-22T04:40:09;10.40;;;5.60;;
13693;SDS011;6919;52.344;14.518;2023-11-22T04:42:41;11.17;;;5.03;;
13693;SDS011;6919;52.344;14.518;2023-11-22T04:45:10;9.13;;;5.67;;
13693;SDS011;6919;52.344;14.518;2023-11-22T04:47:39;9.70;;;5.40;;
13693;SDS011;6919;52.344;14.518;2023-11-22T04:50:10;7.37;;;5.33;;
13693;SDS011;6919;52.344;14.518;2023-11-22T04:52:39;8.47;;;5.90;;
13693;SDS011;6919;52.344;14.518;2023-11-22T04:55:08;7.07;;;4.80;;
13693;SDS011;6919;52.344;14.518;2023-11-22T04:57:37;12.13;;;6.13;;
13693;SDS011;6919;52.344;14.518;2023-11-22T05:00:07;10.07;;;5.63;;
13693;SDS011;6919;52.344;14.518;2023-11-22T05:02:37;10.90;;;5.73;;
13693;SDS011;6919;52.344;14.518;2023-11-22T05:05:06;8.53;;;5.80;;
13693;SDS011;6919;52.344;14.518;2023-11-22T05:07:39;10.67;;;5.57;;
13693;SDS011;6919;52.344;14.518;2023-11-22T05:10:08;11.97;;;6.50;;
13693;SDS011;6919;52.344;14.518;2023-11-22T05:12:37;9.00;;;5.53;;
13693;SDS011;6919;52.344;14.518;2023-11-22T05:15:12;12.93;;;6.57;;
13693;SDS011;6919;52.344;14.518;2023-11-22T05:17:41;11.73;;;6.37;;
13693;SDS011;6919;52.344;14.518;2023-11-22T05:20:10;10.77;;;6.00;;
13693;SDS011;6919;52.344;14.518;2023-11-22T05:22:40;13.43;;;6.77;;
13693;SDS011;6919;52.344;14.518;2023-11-22T05:25:08;9.40;;;5.73;;
13693;SDS011;6919;52.344;14.518;2023-11-22T05:27:37;11.63;;;6.23;;
13693;SDS011;6919;52.344;14.518;2023-11-22T05:30:06;13.90;;;6.10;;
13693;SDS011;6919;52.344;14.518;2023-11-22T05:32:37;12.23;;;5.77;;
13693;SDS011;6919;52.344;14.518;2023-11-22T05:35:06;17.80;;;7.03;;
13693;SDS011;6919;52.344;14.518;2023-11-22T05:37:36;13.50;;;7.13;;
13693;SDS011;6919;52.344;14.518;2023-11-22T05:40:07;12.03;;;6.67;;
13693;SDS011;6919;52.344;14.518;2023-11-22T05:42:37;15.00;;;7.47;;
13693;SDS011;6919;52.344;14.518;2023-11-22T05:45:07;16.13;;;6.93;;
13693;SDS011;6919;52.344;14.518;2023-11-22T05:47:36;10.00;;;6.47;;
13693;SDS011;6919;52.344;14.518;2023-11-22T05:50:06;13.97;;;7.07;;
13693;SDS011;6919;52.344;14.518;2023-11-22T05:52:36;10.97;;;6.53;;
13693;SDS011;6919;52.344;14.518;2023-11-22T05:55:07;13.90;;;7.10;;
13693;SDS011;6919;52.344;14.518;2023-11-22T05:57:36;13.07;;;6.73;;
13693;SDS011;6919;52.344;14.518;2023-11-22T06:00:05;11.40;;;6.67;;
13693;SDS011;6919;52.344;14.518;2023-11-22T06:02:34;11.23;;;7.00;;
13693;SDS011;6919;52.344;14.518;2023-11-22T06:05:05;9.73;;;5.57;;
13693;SDS011;6919;52.344;14.518;2023-11-22T06:07:36;12.30;;;6.90;;
13693;SDS011;6919;52.344;14.518;2023-11-22T06:10:05;8.93;;;5.40;;
13693;SDS011;6919;52.344;14.518;2023-11-22T06:12:35;12.77;;;6.80;;
13693;SDS011;6919;52.344;14.518;2023-11-22T06:15:04;12.87;;;6.60;;
13693;SDS011;6919;52.344;14.518;2023-11-22T06:17:34;10.10;;;5.87;;
13693;SDS011;6919;52.344;14.518;2023-11-22T06:20:02;11.53;;;5.70;;
13693;SDS011;6919;52.344;14.518;2023-11-22T06:22:33;12.47;;;7.00;;
13693;SDS011;6919;52.344;14.518;2023-11-22T06:25:01;14.60;;;7.43;;
13693;SDS011;6919;52.344;14.518;2023-11-22T06:27:32;17.63;;;6.90;;
13693;SDS011;6919;52.344;14.518;2023-11-22T06:30:00;14.87;;;7.80;;
13693;SDS011;6919;52.344;14.518;2023-11-22T06:32:29;14.73;;;7.10;;
13693;SDS011;6919;52.344;14.518;2023-11-22T06:34:58;12.43;;;6.63;;
13693;SDS011;6919;52.344;14.518;2023-11-22T06:37:26;12.27;;;7.20;;
13693;SDS011;6919;52.344;14.518;2023-11-22T06:39:56;27.03;;;10.83;;
13693;SDS011;6919;52.344;14.518;2023-11-22T06:42:25;17.77;;;9.40;;
13693;SDS011;6919;52.344;14.518;2023-11-22T06:44:55;15.80;;;8.57;;
13693;SDS011;6919;52.344;14.518;2023-11-22T06:47:26;15.80;;;9.43;;
13693;SDS011;6919;52.344;14.518;2023-11-22T06:49:55;11.70;;;6.77;;
13693;SDS011;6919;52.344;14.518;2023-11-22T06:52:24;13.27;;;7.23;;
13693;SDS011;6919;52.344;14.518;2023-11-22T06:54:53;16.27;;;6.83;;
13693;SDS011;6919;52.344;14.518;2023-11-22T06:57:21;16.67;;;6.63;;
13693;SDS011;6919;52.344;14.518;2023-11-22T06:59:58;15.03;;;7.47;;
13693;SDS011;6919;52.344;14.518;2023-11-22T07:02:27;14.57;;;7.10;;
13693;SDS011;6919;52.344;14.518;2023-11-22T07:04:56;18.60;;;8.33;;
13693;SDS011;6919;52.344;14.518;2023-11-22T07:07:25;15.60;;;8.43;;
13693;SDS011;6919;52.344;14.518;2023-11-22T07:09:54;12.00;;;7.07;;
13693;SDS011;6919;52.344;14.518;2023-11-22T07:12:26;9.20;;;6.53;;
13693;SDS011;6919;52.344;14.518;2023-11-22T07:14:55;16.10;;;8.13;;
13693;SDS011;6919;52.344;14.518;2023-11-22T07:17:25;19.67;;;9.47;;
13693;SDS011;6919;52.344;14.518;2023-11-22T07:19:55;20.30;;;10.90;;
13693;SDS011;6919;52.344;14.518;2023-11-22T07:22:23;18.63;;;9.73;;
13693;SDS011;6919;52.344;14.518;2023-11-22T07:24:53;11.37;;;7.97;;
13693;SDS011;6919;52.344;14.518;2023-11-22T07:27:26;13.67;;;7.33;;
13693;SDS011;6919;52.344;14.518;2023-11-22T07:29:54;13.90;;;8.70;;
13693;SDS011;6919;52.344;14.518;2023-11-22T07:32:24;11.80;;;6.90;;
13693;SDS011;6919;52.344;14.518;2023-11-22T07:34:53;10.13;;;6.13;;
13693;SDS011;6919;52.344;14.518;2023-11-22T07:37:22;12.30;;;6.73;;
13693;SDS011;6919;52.344;14.518;2023-11-22T07:39:51;12.47;;;7.90;;
13693;SDS011;6919;52.344;14.518;2023-11-22T07:42:20;10.50;;;6.80;;
13693;SDS011;6919;52.344;14.518;2023-11-22T07:44:48;14.07;;;6.30;;
13693;SDS011;6919;52.344;14.518;2023-11-22T07:47:22;10.53;;;6.50;;
13693;SDS011;6919;52.344;14.518;2023-11-22T07:49:52;10.40;;;6.70;;
13693;SDS011;6919;52.344;14.518;2023-11-22T07:52:21;11.50;;;6.83;;
13693;SDS011;6919;52.344;14.518;2023-11-22T07:54:56;14.87;;;6.63;;
13693;SDS011;6919;52.344;14.518;2023-11-22T07:57:24;13.70;;;6.80;;
13693;SDS011;6919;52.344;14.518;2023-11-22T07:59:53;12.50;;;6.40;;
13693;SDS011;6919;52.344;14.518;2023-11-22T08:02:23;12.73;;;6.73;;
13693;SDS011;6919;52.344;14.518;2023-11-22T08:04:53;10.07;;;6.53;;
13693;SDS011;6919;52.344;14.518;2023-11-22T08:07:21;10.27;;;6.33;;
13693;SDS011;6919;52.344;14.518;2023-11-22T08:09:50;9.63;;;6.57;;
13693;SDS011;6919;52.344;14.518;2023-11-22T08:12:18;12.23;;;5.93;;
13693;SDS011;6919;52.344;14.518;2023-11-22T08:14:49;11.13;;;5.90;;
13693;SDS011;6919;52.344;14.518;2023-11-22T08:17:21;11.37;;;6.73;;
13693;SDS011;6919;52.344;14.518;2023-11-22T08:19:52;10.73;;;6.23;;
13693;SDS011;6919;52.344;14.518;2023-11-22T08:22:20;10.83;;;6.10;;
13693;SDS011;6919;52.344;14.518;2023-11-22T08:24:49;11.50;;;5.87;;
13693;SDS011;6919;52.344;14.518;2023-11-22T08:27:17;14.90;;;6.07;;
13693;SDS011;6919;52.344;14.518;2023-11-22T08:29:46;8.07;;;5.77;;
13693;SDS011;6919;52.344;14.518;2023-11-22T08:32:15;10.77;;;6.27;;
13693;SDS011;6919;52.344;14.518;2023-11-22T08:34:44;13.10;;;6.43;;
13693;SDS011;6919;52.344;14.518;2023-11-22T08:37:14;9.90;;;6.57;;
13693;SDS011;6919;52.344;14.518;2023-11-22T08:39:42;9.87;;;6.10;;
13693;SDS011;6919;52.344;14.518;2023-11-22T08:42:11;9.57;;;6.00;;
13693;SDS011;6919;52.344;14.518;2023-11-22T08:44:42;14.50;;;5.83;;
13693;SDS011;6919;52.344;14.518;2023-11-22T08:47:12;10.37;;;5.97;;
13693;SDS011;6919;52.344;14.518;2023-11-22T08:49:40;11.13;;;6.53;;
13693;SDS011;6919;52.344;14.518;2023-11-22T08:52:09;9.80;;;6.30;;
13693;SDS011;6919;52.344;14.518;2023-11-22T08:54:41;9.83;;;6.37;;
13693;SDS011;6919;52.344;14.518;2023-11-22T08:57:09;10.40;;;6.20;;
13693;SDS011;6919;52.344;14.518;2023-11-22T08:59:38;11.77;;;6.50;;
13693;SDS011;6919;52.344;14.518;2023-11-22T09:02:06;9.00;;;6.30;;
13693;SDS011;6919;52.344;14.518;2023-11-22T09:04:38;9.10;;;5.87;;
13693;SDS011;6919;52.344;14.518;2023-11-22T09:07:07;10.40;;;5.73;;
13693;SDS011;6919;52.344;14.518;2023-11-22T09:09:42;9.77;;;6.40;;
13693;SDS011;6919;52.344;14.518;2023-11-22T09:12:10;11.80;;;6.30;;
13693;SDS011;6919;52.344;14.518;2023-11-22T09:14:39;7.20;;;5.37;;
13693;SDS011;6919;52.344;14.518;2023-11-22T09:17:09;11.70;;;6.73;;
13693;SDS011;6919;52.344;14.518;2023-11-22T09:19:37;8.97;;;5.90;;
13693;SDS011;6919;52.344;14.518;2023-11-22T09:22:06;13.43;;;6.20;;
13693;SDS011;6919;52.344;14.518;2023-11-22T09:24:37;8.47;;;5.87;;
13693;SDS011;6919;52.344;14.518;2023-11-22T09:27:07;9.37;;;6.37;;
13693;SDS011;6919;52.344;14.518;2023-11-22T09:29:38;10.27;;;6.33;;
13693;SDS011;6919;52.344;14.518;2023-11-22T09:32:06;9.43;;;5.60;;
13693;SDS011;6919;52.344;14.518;2023-11-22T09:34:37;12.27;;;6.10;;
13693;SDS011;6919;52.344;14.518;2023-11-22T09:37:05;9.37;;;6.40;;
13693;SDS011;6919;52.344;14.518;2023-11-22T09:39:34;12.70;;;6.37;;
13693;SDS011;6919;52.344;14.518;2023-11-22T09:42:03;11.40;;;6.67;;
13693;SDS011;6919;52.344;14.518;2023-11-22T09:44:33;12.87;;;6.43;;
13693;SDS011;6919;52.344;14.518;2023-11-22T09:47:04;11.23;;;6.30;;
13693;SDS011;6919;52.344;14.518;2023-11-22T09:49:34;10.60;;;6.60;;
13693;SDS011;6919;52.344;14.518;2023-11-22T09:52:07;11.07;;;6.47;;
13693;SDS011;6919;52.344;14.518;2023-11-22T09:54:40;16.33;;;7.00;;
13693;SDS011;6919;52.344;14.518;2023-11-22T09:57:09;13.13;;;6.97;;
13693;SDS011;6919;52.344;14.518;2023-11-22T09:59:40;9.90;;;6.07;;
13693;SDS011;6919;52.344;14.518;2023-11-22T10:02:09;8.70;;;6.10;;
13693;SDS011;6919;52.344;14.518;2023-11-22T10:04:38;13.17;;;6.70;;
13693;SDS011;6919;52.344;14.518;2023-11-22T10:07:07;12.70;;;6.60;;
13693;SDS011;6919;52.344;14.518;2023-11-22T10:09:36;10.77;;;6.37;;
13693;SDS011;6919;52.344;14.518;2023-11-22T10:12:08;9.77;;;6.13;;
13693;SDS011;6919;52.344;14.518;2023-11-22T10:14:40;11.63;;;6.20;;
13693;SDS011;6919;52.344;14.518;2023-11-22T10:17:08;11.47;;;6.20;;
13693;SDS011;6919;52.344;14.518;2023-11-22T10:19:38;9.47;;;5.87;;
13693;SDS011;6919;52.344;14.518;2023-11-22T10:22:08;9.30;;;6.13;;
13693;SDS011;6919;52.344;14.518;2023-11-22T10:24:42;10.13;;;6.60;;
13693;SDS011;6919;52.344;14.518;2023-11-22T10:27:14;12.17;;;6.87;;
13693;SDS011;6919;52.344;14.518;2023-11-22T10:29:47;10.43;;;6.27;;
13693;SDS011;6919;52.344;14.518;2023-11-22T10:32:15;11.10;;;6.30;;
13693;SDS011;6919;52.344;14.518;2023-11-22T10:34:44;7.47;;;5.30;;
13693;SDS011;6919;52.344;14.518;2023-11-22T10:37:13;12.10;;;6.50;;
13693;SDS011;6919;52.344;14.518;2023-11-22T10:39:43;11.00;;;6.10;;
13693;SDS011;6919;52.344;14.518;2023-11-22T10:42:17;11.13;;;6.10;;
13693;SDS011;6919;52.344;14.518;2023-11-22T10:44:50;9.13;;;5.73;;
13693;SDS011;6919;52.344;14.518;2023-11-22T10:47:20;11.00;;;5.83;;
13693;SDS011;6919;52.344;14.518;2023-11-22T10:49:49;8.43;;;5.67;;
13693;SDS011;6919;52.344;14.518;2023-11-22T10:52:18;9.70;;;5.90;;
13693;SDS011;6919;52.344;14.518;2023-11-22T10:54:49;10.43;;;5.80;;
13693;SDS011;6919;52.344;14.518;2023-11-22T10:57:23;12.43;;;6.23;;
13693;SDS011;6919;52.344;14.518;2023-11-22T10:59:56;9.60;;;6.33;;
13693;SDS011;6919;52.344;14.518;2023-11-22T11:02:32;10.47;;;6.50;;
13693;SDS011;6919;52.344;14.518;2023-11-22T11:05:07;10.87;;;6.63;;
13693;SDS011;6919;52.344;14.518;2023-11-22T11:07:45;9.27;;;5.83;;
13693;SDS011;6919;52.344;14.518;2023-11-22T11:10:19;11.47;;;6.30;;
13693;SDS011;6919;52.344;14.518;2023-11-22T11:12:50;10.47;;;6.30;;
13693;SDS011;6919;52.344;14.518;2023-11-22T11:15:22;11.67;;;6.50;;
13693;SDS011;6919;52.344;14.518;2023-11-22T11:17:50;7.77;;;4.77;;
13693;SDS011;6919;52.344;14.518;2023-11-22T11:20:22;11.83;;;5.97;;
13693;SDS011;6919;52.344;14.518;2023-11-22T11:22:52;9.57;;;5.67;;
13693;SDS011;6919;52.344;14.518;2023-11-22T11:25:22;10.13;;;6.40;;
13693;SDS011;6919;52.344;14.518;2023-11-22T11:27:55;7.63;;;5.43;;
13693;SDS011;6919;52.344;14.518;2023-11-22T11:33:26;7.37;;;5.23;;
13693;SDS011;6919;52.344;14.518;2023-11-22T11:36:00;7.17;;;5.00;;
13693;SDS011;6919;52.344;14.518;2023-11-22T11:38:31;10.80;;;6.50;;
13693;SDS011;6919;52.344;14.518;2023-11-22T11:41:08;9.73;;;6.10;;
13693;SDS011;6919;52.344;14.518;2023-11-22T11:43:42;10.93;;;6.20;;
13693;SDS011;6919;52.344;14.518;2023-11-22T11:46:16;10.77;;;6.43;;
13693;SDS011;6919;52.344;14.518;2023-11-22T11:48:46;11.00;;;6.63;;
13693;SDS011;6919;52.344;14.518;2023-11-22T11:51:38;13.60;;;6.17;;
13693;SDS011;6919;52.344;14.518;2023-11-22T11:54:07;7.00;;;5.57;;
13693;SDS011;6919;52.344;14.518;2023-11-22T11:56:39;11.33;;;5.40;;
13693;SDS011;6919;52.344;14.518;2023-11-22T11:59:09;7.27;;;5.17;;
13693;SDS011;6919;52.344;14.518;2023-11-22T12:01:39;7.63;;;5.37;;
13693;SDS011;6919;52.344;14.518;2023-11-22T12:04:08;9.07;;;5.53;;
13693;SDS011;6919;52.344;14.518;2023-11-22T12:06:37;7.57;;;4.93;;
13693;SDS011;6919;52.344;14.518;2023-11-22T12:09:06;8.23;;;5.33;;
13693;SDS011;6919;52.344;14.518;2023-11-22T12:11:35;7.53;;;4.70;;
13693;SDS011;6919;52.344;14.518;2023-11-22T12:14:05;10.07;;;5.67;;
13693;SDS011;6919;52.344;14.518;2023-11-22T12:16:35;7.67;;;4.43;;
13693;SDS011;6919;52.344;14.518;2023-11-22T12:19:05;8.27;;;5.00;;
13693;SDS011;6919;52.344;14.518;2023-11-22T12:21:34;7.40;;;5.00;;
13693;SDS011;6919;52.344;14.518;2023-11-22T12:24:04;8.83;;;5.73;;
13693;SDS011;6919;52.344;14.518;2023-11-22T12:26:39;10.20;;;6.23;;
13693;SDS011;6919;52.344;14.518;2023-11-22T12:29:08;9.50;;;5.97;;
13693;SDS011;6919;52.344;14.518;2023-11-22T12:31:43;7.37;;;5.33;;
13693;SDS011;6919;52.344;14.518;2023-11-22T12:34:15;6.87;;;4.93;;
13693;SDS011;6919;52.344;14.518;2023-11-22T12:36:45;10.27;;;5.23;;
13693;SDS011;6919;52.344;14.518;2023-11-22T12:39:15;7.90;;;4.57;;
13693;SDS011;6919;52.344;14.518;2023-11-22T12:41:44;8.73;;;5.43;;
13693;SDS011;6919;52.344;14.518;2023-11-22T12:44:27;11.77;;;5.97;;
13693;SDS011;6919;52.344;14.518;2023-11-22T12:46:58;12.70;;;5.53;;
13693;SDS011;6919;52.344;14.518;2023-11-22T12:49:32;9.57;;;5.43;;
13693;SDS011;6919;52.344;14.518;2023-11-22T12:52:10;7.37;;;4.37;;
13693;SDS011;6919;52.344;14.518;2023-11-22T12:54:40;9.80;;;4.80;;
13693;SDS011;6919;52.344;14.518;2023-11-22T12:57:10;6.53;;;4.13;;
13693;SDS011;6919;52.344;14.518;2023-11-22T12:59:39;7.93;;;4.00;;
13693;SDS011;6919;52.344;14.518;2023-11-22T13:02:08;6.90;;;4.47;;
13693;SDS011;6919;52.344;14.518;2023-11-22T13:04:38;5.83;;;3.67;;
13693;SDS011;6919;52.344;14.518;2023-11-22T13:07:07;9.03;;;4.40;;
13693;SDS011;6919;52.344;14.518;2023-11-22T13:09:36;7.77;;;4.20;;
13693;SDS011;6919;52.344;14.518;2023-11-22T13:12:05;6.73;;;4.00;;
13693;SDS011;6919;52.344;14.518;2023-11-22T13:14:34;7.93;;;4.63;;
13693;SDS011;6919;52.344;14.518;2023-11-22T13:17:08;9.80;;;4.57;;
13693;SDS011;6919;52.344;14.518;2023-11-22T13:19:39;11.43;;;6.63;;
13693;SDS011;6919;52.344;14.518;2023-11-22T13:22:10;10.27;;;5.90;;
13693;SDS011;6919;52.344;14.518;2023-11-22T13:24:41;6.13;;;4.53;;
13693;SDS011;6919;52.344;14.518;2023-11-22T13:27:10;6.67;;;4.27;;
13693;SDS011;6919;52.344;14.518;2023-11-22T13:29:39;6.77;;;4.73;;
13693;SDS011;6919;52.344;14.518;2023-11-22T13:32:10;7.73;;;5.13;;
13693;SDS011;6919;52.344;14.518;2023-11-22T13:34:40;6.73;;;4.47;;
13693;SDS011;6919;52.344;14.518;2023-11-22T13:37:09;8.93;;;5.57;;
13693;SDS011;6919;52.344;14.518;2023-11-22T13:39:38;7.63;;;5.00;;
13693;SDS011;6919;52.344;14.518;2023-11-22T13:42:07;7.37;;;4.30;;
13693;SDS011;6919;52.344;14.518;2023-11-22T13:44:36;9.50;;;5.23;;
13693;SDS011;6919;52.344;14.518;2023-11-22T13:47:04;7.73;;;5.20;;
13693;SDS011;6919;52.344;14.518;2023-11-22T13:49:34;9.97;;;5.40;;
13693;SDS011;6919;52.344;14.518;2023-11-22T13:52:04;11.13;;;5.17;;
13693;SDS011;6919;52.344;14.518;2023-11-22T13:54:33;13.57;;;5.60;;
13693;SDS011;6919;52.344;14.518;2023-11-22T13:57:05;9.53;;;5.20;;
13693;SDS011;6919;52.344;14.518;2023-11-22T13:59:33;9.00;;;5.00;;
13693;SDS011;6919;52.344;14.518;2023-11-22T14:02:02;7.80;;;5.17;;
13693;SDS011;6919;52.344;14.518;2023-11-22T14:04:31;12.63;;;6.87;;
13693;SDS011;6919;52.344;14.518;2023-11-22T14:07:00;10.20;;;6.30;;
13693;SDS011;6919;52.344;14.518;2023-11-22T14:09:30;7.70;;;5.80;;
13693;SDS011;6919;52.344;14.518;2023-11-22T14:12:02;17.33;;;6.00;;
13693;SDS011;6919;52.344;14.518;2023-11-22T14:14:32;11.67;;;7.57;;
13693;SDS011;6919;52.344;14.518;2023-11-22T14:17:00;12.07;;;7.83;;
13693;SDS011;6919;52.344;14.518;2023-11-22T14:19:30;8.27;;;5.03;;
13693;SDS011;6919;52.344;14.518;2023-11-22T14:21:58;7.73;;;5.37;;
13693;SDS011;6919;52.344;14.518;2023-11-22T14:24:29;10.57;;;6.90;;
13693;SDS011;6919;52.344;14.518;2023-11-22T14:27:03;13.33;;;7.60;;
13693;SDS011;6919;52.344;14.518;2023-11-22T14:29:31;12.83;;;6.67;;
13693;SDS011;6919;52.344;14.518;2023-11-22T14:32:00;8.13;;;5.30;;
13693;SDS011;6919;52.344;14.518;2023-11-22T14:34:28;6.73;;;4.93;;
13693;SDS011;6919;52.344;14.518;2023-11-22T14:36:57;10.83;;;4.53;;
13693;SDS011;6919;52.344;14.518;2023-11-22T14:39:29;10.53;;;5.03;;
13693;SDS011;6919;52.344;14.518;2023-11-22T14:42:00;8.73;;;4.43;;
13693;SDS011;6919;52.344;14.518;2023-11-22T14:44:28;6.73;;;4.00;;
13693;SDS011;6919;52.344;14.518;2023-11-22T14:46:57;7.07;;;4.20;;
13693;SDS011;6919;52.344;14.518;2023-11-22T14:49:28;8.43;;;4.20;;
13693;SDS011;6919;52.344;14.518;2023-11-22T14:52:08;14.73;;;5.17;;
13693;SDS011;6919;52.344;14.518;2023-11-22T14:54:38;6.90;;;4.53;;
13693;SDS011;6919;52.344;14.518;2023-11-22T14:57:07;6.73;;;4.87;;
13693;SDS011;6919;52.344;14.518;2023-11-22T14:59:36;8.10;;;4.83;;